sensor_id;sensor_type;location;lat;lon;timestamp;P1;durP1;ratioP1;P2;durP2;ratioP2
20462;SDS011;10390;53.566;9.980;2023-01-01T00:01:07;50.65;;;33.95;;
20462;SDS011;10390;53.566;9.980;2023-01-01T00:03:34;67.07;;;43.08;;
20462;SDS011;10390;53.566;9.980;2023-01-01T00:06:04;69.40;;;44.20;;
20462;SDS011;10390;53.566;9.980;2023-01-01T00:08:33;65.13;;;42.47;;
20462;SDS011;10390;53.566;9.980;2023-01-01T00:11:08;60.85;;;39.10;;
20462;SDS011;10390;53.566;9.980;2023-01-01T00:13:35;51.90;;;32.90;;
20462;SDS011;10390;53.566;9.980;2023-01-01T00:16:12;39.58;;;28.35;;
20462;SDS011;10390;53.566;9.980;2023-01-01T00:18:38;40.10;;;28.48;;
20462;SDS011;10390;53.566;9.980;2023-01-01T00:21:05;38.00;;;25.88;;
20462;SDS011;10390;53.566;9.980;2023-01-01T00:23:34;38.30;;;25.90;;
20462;SDS011;10390;53.566;9.980;2023-01-01T00:25:59;35.50;;;24.83;;
20462;SDS011;10390;53.566;9.980;2023-01-01T00:28:25;33.90;;;23.42;;
20462;SDS011;10390;53.566;9.980;2023-01-01T00:30:51;28.20;;;20.55;;
20462;SDS011;10390;53.566;9.980;2023-01-01T00:33:17;27.25;;;20.25;;
20462;SDS011;10390;53.566;9.980;2023-01-01T00:35:42;26.38;;;19.23;;
20462;SDS011;10390;53.566;9.980;2023-01-01T00:38:08;26.58;;;19.15;;
20462;SDS011;10390;53.566;9.980;2023-01-01T00:40:34;27.95;;;18.25;;
20462;SDS011;10390;53.566;9.980;2023-01-01T00:42:59;22.88;;;17.42;;
20462;SDS011;10390;53.566;9.980;2023-01-01T00:45:25;21.20;;;15.40;;
20462;SDS011;10390;53.566;9.980;2023-01-01T00:47:51;19.63;;;15.45;;
20462;SDS011;10390;53.566;9.980;2023-01-01T00:50:19;19.80;;;14.85;;
20462;SDS011;10390;53.566;9.980;2023-01-01T00:52:46;19.23;;;14.35;;
20462;SDS011;10390;53.566;9.980;2023-01-01T00:55:13;18.55;;;13.35;;
20462;SDS011;10390;53.566;9.980;2023-01-01T00:57:38;18.98;;;13.70;;
20462;SDS011;10390;53.566;9.980;2023-01-01T01:00:05;16.08;;;12.80;;
20462;SDS011;10390;53.566;9.980;2023-01-01T01:02:31;18.02;;;13.18;;
20462;SDS011;10390;53.566;9.980;2023-01-01T01:04:57;18.20;;;13.55;;
20462;SDS011;10390;53.566;9.980;2023-01-01T01:07:22;15.95;;;13.00;;
20462;SDS011;10390;53.566;9.980;2023-01-01T01:09:48;15.23;;;11.80;;
20462;SDS011;10390;53.566;9.980;2023-01-01T01:12:14;16.58;;;12.55;;
20462;SDS011;10390;53.566;9.980;2023-01-01T01:14:39;13.70;;;10.75;;
20462;SDS011;10390;53.566;9.980;2023-01-01T01:17:05;14.90;;;11.00;;
20462;SDS011;10390;53.566;9.980;2023-01-01T01:19:30;16.15;;;11.07;;
20462;SDS011;10390;53.566;9.980;2023-01-01T01:21:56;13.90;;;11.07;;
20462;SDS011;10390;53.566;9.980;2023-01-01T01:24:21;13.57;;;11.00;;
20462;SDS011;10390;53.566;9.980;2023-01-01T01:26:47;13.63;;;10.10;;
20462;SDS011;10390;53.566;9.980;2023-01-01T01:29:13;12.60;;;10.57;;
20462;SDS011;10390;53.566;9.980;2023-01-01T01:31:38;15.82;;;10.05;;
20462;SDS011;10390;53.566;9.980;2023-01-01T01:34:04;14.48;;;9.85;;
20462;SDS011;10390;53.566;9.980;2023-01-01T01:36:30;12.75;;;10.32;;
20462;SDS011;10390;53.566;9.980;2023-01-01T01:38:56;12.65;;;10.10;;
20462;SDS011;10390;53.566;9.980;2023-01-01T01:41:22;12.55;;;9.73;;
20462;SDS011;10390;53.566;9.980;2023-01-01T01:43:50;12.73;;;9.70;;
20462;SDS011;10390;53.566;9.980;2023-01-01T01:46:18;11.68;;;9.38;;
20462;SDS011;10390;53.566;9.980;2023-01-01T01:48:47;11.93;;;9.50;;
20462;SDS011;10390;53.566;9.980;2023-01-01T01:51:15;11.48;;;10.18;;
20462;SDS011;10390;53.566;9.980;2023-01-01T01:53:51;12.25;;;9.85;;
20462;SDS011;10390;53.566;9.980;2023-01-01T01:56:22;11.65;;;8.95;;
20462;SDS011;10390;53.566;9.980;2023-01-01T01:58:54;12.07;;;9.13;;
20462;SDS011;10390;53.566;9.980;2023-01-01T02:01:20;11.13;;;8.60;;
20462;SDS011;10390;53.566;9.980;2023-01-01T02:04:19;10.90;;;9.13;;
20462;SDS011;10390;53.566;9.980;2023-01-01T02:06:38;10.10;;;8.25;;
20462;SDS011;10390;53.566;9.980;2023-01-01T02:09:04;9.30;;;8.00;;
20462;SDS011;10390;53.566;9.980;2023-01-01T02:11:31;11.18;;;7.30;;
20462;SDS011;10390;53.566;9.980;2023-01-01T02:13:57;12.77;;;8.02;;
20462;SDS011;10390;53.566;9.980;2023-01-01T02:19:12;10.52;;;7.43;;
20462;SDS011;10390;53.566;9.980;2023-01-01T02:22:08;11.00;;;8.40;;
20462;SDS011;10390;53.566;9.980;2023-01-01T02:29:54;9.70;;;7.38;;
20462;SDS011;10390;53.566;9.980;2023-01-01T02:33:08;10.30;;;7.20;;
20462;SDS011;10390;53.566;9.980;2023-01-01T02:35:20;11.35;;;6.93;;
20462;SDS011;10390;53.566;9.980;2023-01-01T02:37:59;9.85;;;7.97;;
20462;SDS011;10390;53.566;9.980;2023-01-01T02:40:58;10.45;;;7.20;;
20462;SDS011;10390;53.566;9.980;2023-01-01T02:43:26;10.85;;;7.82;;
20462;SDS011;10390;53.566;9.980;2023-01-01T02:45:52;10.63;;;7.75;;
20462;SDS011;10390;53.566;9.980;2023-01-01T02:48:38;9.02;;;7.00;;
20462;SDS011;10390;53.566;9.980;2023-01-01T02:53:47;8.48;;;7.25;;
20462;SDS011;10390;53.566;9.980;2023-01-01T02:56:30;10.07;;;7.15;;
20462;SDS011;10390;53.566;9.980;2023-01-01T03:02:03;10.20;;;7.40;;
20462;SDS011;10390;53.566;9.980;2023-01-01T03:15:27;8.60;;;6.82;;
20462;SDS011;10390;53.566;9.980;2023-01-01T03:20:49;8.30;;;6.80;;
20462;SDS011;10390;53.566;9.980;2023-01-01T03:23:21;8.85;;;6.72;;
20462;SDS011;10390;53.566;9.980;2023-01-01T03:25:55;8.93;;;7.57;;
20462;SDS011;10390;53.566;9.980;2023-01-01T03:29:06;8.77;;;6.30;;
20462;SDS011;10390;53.566;9.980;2023-01-01T03:31:16;7.78;;;6.50;;
20462;SDS011;10390;53.566;9.980;2023-01-01T03:33:46;9.57;;;6.75;;
20462;SDS011;10390;53.566;9.980;2023-01-01T03:36:23;10.45;;;6.88;;
20462;SDS011;10390;53.566;9.980;2023-01-01T03:38:56;10.43;;;7.03;;
20462;SDS011;10390;53.566;9.980;2023-01-01T03:44:09;7.78;;;6.38;;
20462;SDS011;10390;53.566;9.980;2023-01-01T03:46:42;9.50;;;6.85;;
20462;SDS011;10390;53.566;9.980;2023-01-01T03:49:09;8.80;;;6.15;;
20462;SDS011;10390;53.566;9.980;2023-01-01T03:54:26;9.05;;;7.00;;
20462;SDS011;10390;53.566;9.980;2023-01-01T03:59:39;8.93;;;7.22;;
20462;SDS011;10390;53.566;9.980;2023-01-01T04:02:29;7.93;;;6.03;;
20462;SDS011;10390;53.566;9.980;2023-01-01T04:04:58;8.52;;;5.90;;
20462;SDS011;10390;53.566;9.980;2023-01-01T04:07:27;7.72;;;5.50;;
20462;SDS011;10390;53.566;9.980;2023-01-01T04:09:55;10.70;;;6.43;;
20462;SDS011;10390;53.566;9.980;2023-01-01T04:12:23;7.93;;;6.45;;
20462;SDS011;10390;53.566;9.980;2023-01-01T04:14:49;8.65;;;6.70;;
20462;SDS011;10390;53.566;9.980;2023-01-01T04:17:15;7.47;;;5.90;;
20462;SDS011;10390;53.566;9.980;2023-01-01T04:19:40;7.97;;;6.28;;
20462;SDS011;10390;53.566;9.980;2023-01-01T04:22:06;9.55;;;6.63;;
20462;SDS011;10390;53.566;9.980;2023-01-01T04:24:32;7.35;;;6.03;;
20462;SDS011;10390;53.566;9.980;2023-01-01T04:26:57;7.65;;;5.85;;
20462;SDS011;10390;53.566;9.980;2023-01-01T04:29:23;7.68;;;6.07;;
20462;SDS011;10390;53.566;9.980;2023-01-01T04:31:49;8.73;;;6.28;;
20462;SDS011;10390;53.566;9.980;2023-01-01T04:34:14;7.93;;;6.00;;
20462;SDS011;10390;53.566;9.980;2023-01-01T04:36:41;7.57;;;5.93;;
20462;SDS011;10390;53.566;9.980;2023-01-01T04:39:06;7.40;;;5.60;;
20462;SDS011;10390;53.566;9.980;2023-01-01T04:41:32;7.45;;;5.78;;
20462;SDS011;10390;53.566;9.980;2023-01-01T04:43:58;7.38;;;5.80;;
20462;SDS011;10390;53.566;9.980;2023-01-01T04:46:24;7.50;;;5.93;;
20462;SDS011;10390;53.566;9.980;2023-01-01T04:48:50;7.30;;;5.90;;
20462;SDS011;10390;53.566;9.980;2023-01-01T04:51:17;7.90;;;5.93;;
20462;SDS011;10390;53.566;9.980;2023-01-01T04:53:44;7.63;;;5.55;;
20462;SDS011;10390;53.566;9.980;2023-01-01T04:56:10;10.18;;;5.75;;
20462;SDS011;10390;53.566;9.980;2023-01-01T04:58:38;8.57;;;6.15;;
20462;SDS011;10390;53.566;9.980;2023-01-01T05:01:05;7.47;;;6.00;;
20462;SDS011;10390;53.566;9.980;2023-01-01T05:03:31;7.85;;;5.97;;
20462;SDS011;10390;53.566;9.980;2023-01-01T05:06:01;7.88;;;6.03;;
20462;SDS011;10390;53.566;9.980;2023-01-01T05:08:28;8.65;;;5.80;;
20462;SDS011;10390;53.566;9.980;2023-01-01T05:11:02;7.20;;;5.47;;
20462;SDS011;10390;53.566;9.980;2023-01-01T05:13:29;8.05;;;6.40;;
20462;SDS011;10390;53.566;9.980;2023-01-01T05:15:55;7.40;;;5.88;;
20462;SDS011;10390;53.566;9.980;2023-01-01T05:18:21;7.65;;;5.85;;
20462;SDS011;10390;53.566;9.980;2023-01-01T05:20:47;9.43;;;5.97;;
20462;SDS011;10390;53.566;9.980;2023-01-01T05:23:14;8.68;;;6.18;;
20462;SDS011;10390;53.566;9.980;2023-01-01T05:25:41;6.88;;;5.55;;
20462;SDS011;10390;53.566;9.980;2023-01-01T05:28:07;7.18;;;5.35;;
20462;SDS011;10390;53.566;9.980;2023-01-01T05:30:33;8.30;;;5.30;;
20462;SDS011;10390;53.566;9.980;2023-01-01T05:33:02;6.57;;;5.30;;
20462;SDS011;10390;53.566;9.980;2023-01-01T05:35:28;6.57;;;5.40;;
20462;SDS011;10390;53.566;9.980;2023-01-01T05:37:53;7.82;;;5.55;;
20462;SDS011;10390;53.566;9.980;2023-01-01T05:40:19;6.47;;;5.30;;
20462;SDS011;10390;53.566;9.980;2023-01-01T05:42:46;7.57;;;5.45;;
20462;SDS011;10390;53.566;9.980;2023-01-01T05:45:12;7.53;;;5.25;;
20462;SDS011;10390;53.566;9.980;2023-01-01T05:47:38;8.05;;;5.38;;
20462;SDS011;10390;53.566;9.980;2023-01-01T05:50:03;7.85;;;5.20;;
20462;SDS011;10390;53.566;9.980;2023-01-01T05:52:29;7.38;;;5.53;;
20462;SDS011;10390;53.566;9.980;2023-01-01T05:54:55;7.20;;;5.05;;
20462;SDS011;10390;53.566;9.980;2023-01-01T05:57:22;7.65;;;5.30;;
20462;SDS011;10390;53.566;9.980;2023-01-01T05:59:48;6.72;;;5.28;;
20462;SDS011;10390;53.566;9.980;2023-01-01T06:02:13;6.95;;;4.88;;
20462;SDS011;10390;53.566;9.980;2023-01-01T06:04:39;7.00;;;5.25;;
20462;SDS011;10390;53.566;9.980;2023-01-01T06:07:05;6.35;;;5.43;;
20462;SDS011;10390;53.566;9.980;2023-01-01T06:09:30;7.38;;;5.20;;
20462;SDS011;10390;53.566;9.980;2023-01-01T06:11:56;6.30;;;4.93;;
20462;SDS011;10390;53.566;9.980;2023-01-01T06:14:21;7.55;;;5.50;;
20462;SDS011;10390;53.566;9.980;2023-01-01T06:16:47;7.32;;;5.28;;
20462;SDS011;10390;53.566;9.980;2023-01-01T06:19:12;7.90;;;5.50;;
20462;SDS011;10390;53.566;9.980;2023-01-01T06:21:38;7.70;;;5.05;;
20462;SDS011;10390;53.566;9.980;2023-01-01T06:24:04;8.32;;;5.45;;
20462;SDS011;10390;53.566;9.980;2023-01-01T06:26:30;7.30;;;5.43;;
20462;SDS011;10390;53.566;9.980;2023-01-01T06:28:57;6.93;;;5.35;;
20462;SDS011;10390;53.566;9.980;2023-01-01T06:31:25;6.63;;;5.20;;
20462;SDS011;10390;53.566;9.980;2023-01-01T06:33:52;8.00;;;5.13;;
20462;SDS011;10390;53.566;9.980;2023-01-01T06:36:18;6.75;;;5.03;;
20462;SDS011;10390;53.566;9.980;2023-01-01T06:38:46;7.03;;;5.13;;
20462;SDS011;10390;53.566;9.980;2023-01-01T06:41:17;7.13;;;5.20;;
20462;SDS011;10390;53.566;9.980;2023-01-01T06:43:44;7.40;;;5.30;;
20462;SDS011;10390;53.566;9.980;2023-01-01T06:48:47;6.00;;;4.82;;
20462;SDS011;10390;53.566;9.980;2023-01-01T06:51:14;6.53;;;4.82;;
20462;SDS011;10390;53.566;9.980;2023-01-01T06:53:42;7.65;;;4.80;;
20462;SDS011;10390;53.566;9.980;2023-01-01T06:56:07;5.90;;;4.88;;
20462;SDS011;10390;53.566;9.980;2023-01-01T06:58:33;5.85;;;4.57;;
20462;SDS011;10390;53.566;9.980;2023-01-01T07:01:13;5.22;;;4.60;;
20462;SDS011;10390;53.566;9.980;2023-01-01T07:03:40;6.47;;;4.70;;
20462;SDS011;10390;53.566;9.980;2023-01-01T07:06:07;7.15;;;5.15;;
20462;SDS011;10390;53.566;9.980;2023-01-01T07:08:33;6.03;;;4.50;;
20462;SDS011;10390;53.566;9.980;2023-01-01T07:10:59;6.93;;;4.75;;
20462;SDS011;10390;53.566;9.980;2023-01-01T07:13:25;5.63;;;4.30;;
20462;SDS011;10390;53.566;9.980;2023-01-01T07:15:53;6.22;;;4.82;;
20462;SDS011;10390;53.566;9.980;2023-01-01T07:18:19;7.28;;;4.35;;
20462;SDS011;10390;53.566;9.980;2023-01-01T07:20:53;5.47;;;3.78;;
20462;SDS011;10390;53.566;9.980;2023-01-01T07:23:21;6.15;;;4.60;;
20462;SDS011;10390;53.566;9.980;2023-01-01T07:25:48;5.97;;;4.35;;
20462;SDS011;10390;53.566;9.980;2023-01-01T07:28:14;5.90;;;4.03;;
20462;SDS011;10390;53.566;9.980;2023-01-01T07:30:40;9.98;;;4.50;;
20462;SDS011;10390;53.566;9.980;2023-01-01T07:33:05;5.10;;;3.97;;
20462;SDS011;10390;53.566;9.980;2023-01-01T07:35:38;6.50;;;4.13;;
20462;SDS011;10390;53.566;9.980;2023-01-01T07:38:04;5.85;;;4.20;;
20462;SDS011;10390;53.566;9.980;2023-01-01T07:40:30;6.82;;;4.65;;
20462;SDS011;10390;53.566;9.980;2023-01-01T07:42:55;5.70;;;4.32;;
20462;SDS011;10390;53.566;9.980;2023-01-01T07:45:21;5.97;;;4.63;;
20462;SDS011;10390;53.566;9.980;2023-01-01T07:47:49;5.60;;;4.00;;
20462;SDS011;10390;53.566;9.980;2023-01-01T07:50:17;6.22;;;4.63;;
20462;SDS011;10390;53.566;9.980;2023-01-01T07:52:43;6.22;;;3.95;;
20462;SDS011;10390;53.566;9.980;2023-01-01T07:55:13;5.72;;;3.92;;
20462;SDS011;10390;53.566;9.980;2023-01-01T07:57:40;5.90;;;4.50;;
20462;SDS011;10390;53.566;9.980;2023-01-01T08:00:08;5.80;;;4.10;;
20462;SDS011;10390;53.566;9.980;2023-01-01T08:02:37;5.72;;;4.00;;
20462;SDS011;10390;53.566;9.980;2023-01-01T08:05:02;7.30;;;4.60;;
20462;SDS011;10390;53.566;9.980;2023-01-01T08:07:28;5.78;;;4.38;;
20462;SDS011;10390;53.566;9.980;2023-01-01T08:09:54;5.90;;;3.92;;
20462;SDS011;10390;53.566;9.980;2023-01-01T08:12:19;5.85;;;4.00;;
20462;SDS011;10390;53.566;9.980;2023-01-01T08:14:45;6.60;;;4.25;;
20462;SDS011;10390;53.566;9.980;2023-01-01T08:17:11;5.22;;;3.85;;
20462;SDS011;10390;53.566;9.980;2023-01-01T08:19:36;5.97;;;4.43;;
20462;SDS011;10390;53.566;9.980;2023-01-01T08:22:02;5.53;;;4.20;;
20462;SDS011;10390;53.566;9.980;2023-01-01T08:24:28;6.13;;;4.28;;
20462;SDS011;10390;53.566;9.980;2023-01-01T08:26:53;5.75;;;3.80;;
20462;SDS011;10390;53.566;9.980;2023-01-01T08:29:19;6.20;;;4.38;;
20462;SDS011;10390;53.566;9.980;2023-01-01T08:31:45;5.70;;;4.20;;
20462;SDS011;10390;53.566;9.980;2023-01-01T08:34:10;5.70;;;4.10;;
20462;SDS011;10390;53.566;9.980;2023-01-01T08:36:36;6.85;;;4.55;;
20462;SDS011;10390;53.566;9.980;2023-01-01T08:39:04;5.43;;;3.70;;
20462;SDS011;10390;53.566;9.980;2023-01-01T08:41:31;5.07;;;3.70;;
20462;SDS011;10390;53.566;9.980;2023-01-01T08:43:57;5.40;;;3.97;;
20462;SDS011;10390;53.566;9.980;2023-01-01T08:46:22;5.22;;;3.78;;
20462;SDS011;10390;53.566;9.980;2023-01-01T08:48:48;5.30;;;3.92;;
20462;SDS011;10390;53.566;9.980;2023-01-01T08:51:14;7.20;;;4.00;;
20462;SDS011;10390;53.566;9.980;2023-01-01T08:53:40;5.60;;;4.28;;
20462;SDS011;10390;53.566;9.980;2023-01-01T08:56:06;5.50;;;4.00;;
20462;SDS011;10390;53.566;9.980;2023-01-01T08:58:36;6.00;;;4.32;;
20462;SDS011;10390;53.566;9.980;2023-01-01T09:01:04;5.05;;;3.88;;
20462;SDS011;10390;53.566;9.980;2023-01-01T09:03:31;5.43;;;3.53;;
20462;SDS011;10390;53.566;9.980;2023-01-01T09:05:57;5.20;;;4.03;;
20462;SDS011;10390;53.566;9.980;2023-01-01T09:08:23;5.28;;;3.90;;
20462;SDS011;10390;53.566;9.980;2023-01-01T09:10:49;6.60;;;4.05;;
20462;SDS011;10390;53.566;9.980;2023-01-01T09:13:15;4.88;;;3.72;;
20462;SDS011;10390;53.566;9.980;2023-01-01T09:15:43;5.40;;;4.00;;
20462;SDS011;10390;53.566;9.980;2023-01-01T09:18:09;7.15;;;3.60;;
20462;SDS011;10390;53.566;9.980;2023-01-01T09:20:36;5.10;;;3.70;;
20462;SDS011;10390;53.566;9.980;2023-01-01T09:23:02;5.25;;;3.58;;
20462;SDS011;10390;53.566;9.980;2023-01-01T09:25:28;5.47;;;3.85;;
20462;SDS011;10390;53.566;9.980;2023-01-01T09:28:01;12.02;;;3.72;;
20462;SDS011;10390;53.566;9.980;2023-01-01T09:30:30;5.22;;;3.70;;
20462;SDS011;10390;53.566;9.980;2023-01-01T09:32:57;6.88;;;3.90;;
20462;SDS011;10390;53.566;9.980;2023-01-01T09:35:22;6.20;;;3.67;;
20462;SDS011;10390;53.566;9.980;2023-01-01T09:37:48;6.15;;;4.20;;
20462;SDS011;10390;53.566;9.980;2023-01-01T09:43:05;5.43;;;3.67;;
20462;SDS011;10390;53.566;9.980;2023-01-01T09:45:41;4.63;;;3.92;;
20462;SDS011;10390;53.566;9.980;2023-01-01T09:48:23;5.10;;;3.60;;
20462;SDS011;10390;53.566;9.980;2023-01-01T09:50:50;6.55;;;3.80;;
20462;SDS011;10390;53.566;9.980;2023-01-01T09:56:10;4.95;;;3.72;;
20462;SDS011;10390;53.566;9.980;2023-01-01T09:58:51;5.90;;;3.60;;
20462;SDS011;10390;53.566;9.980;2023-01-01T10:06:41;5.03;;;3.90;;
20462;SDS011;10390;53.566;9.980;2023-01-01T10:14:57;6.18;;;3.78;;
20462;SDS011;10390;53.566;9.980;2023-01-01T10:20:03;7.97;;;4.10;;
20462;SDS011;10390;53.566;9.980;2023-01-01T10:22:40;7.38;;;3.85;;
20462;SDS011;10390;53.566;9.980;2023-01-01T10:25:17;7.50;;;4.10;;
20462;SDS011;10390;53.566;9.980;2023-01-01T10:27:44;7.47;;;4.00;;
20462;SDS011;10390;53.566;9.980;2023-01-01T10:30:19;7.53;;;4.10;;
20462;SDS011;10390;53.566;9.980;2023-01-01T10:32:46;5.78;;;3.80;;
20462;SDS011;10390;53.566;9.980;2023-01-01T10:35:17;5.57;;;4.20;;
20462;SDS011;10390;53.566;9.980;2023-01-01T10:37:46;6.57;;;3.92;;
20462;SDS011;10390;53.566;9.980;2023-01-01T10:42:46;6.90;;;4.15;;
20462;SDS011;10390;53.566;9.980;2023-01-01T10:45:17;9.60;;;4.15;;
20462;SDS011;10390;53.566;9.980;2023-01-01T10:50:41;8.00;;;3.70;;
20462;SDS011;10390;53.566;9.980;2023-01-01T10:58:42;10.18;;;4.70;;
20462;SDS011;10390;53.566;9.980;2023-01-01T11:01:25;9.90;;;5.20;;
20462;SDS011;10390;53.566;9.980;2023-01-01T11:04:04;9.60;;;5.07;;
20462;SDS011;10390;53.566;9.980;2023-01-01T11:06:44;9.75;;;5.07;;
20462;SDS011;10390;53.566;9.980;2023-01-01T11:09:27;9.75;;;5.25;;
20462;SDS011;10390;53.566;9.980;2023-01-01T11:14:39;9.23;;;5.10;;
20462;SDS011;10390;53.566;9.980;2023-01-01T11:17:08;8.13;;;5.30;;
20462;SDS011;10390;53.566;9.980;2023-01-01T11:19:38;8.60;;;5.68;;
20462;SDS011;10390;53.566;9.980;2023-01-01T11:22:06;8.35;;;5.43;;
20462;SDS011;10390;53.566;9.980;2023-01-01T11:24:35;7.95;;;4.70;;
20462;SDS011;10390;53.566;9.980;2023-01-01T11:29:48;11.55;;;5.18;;
20462;SDS011;10390;53.566;9.980;2023-01-01T11:32:19;7.68;;;4.80;;
20462;SDS011;10390;53.566;9.980;2023-01-01T11:34:49;9.32;;;5.05;;
20462;SDS011;10390;53.566;9.980;2023-01-01T11:37:25;8.40;;;4.68;;
20462;SDS011;10390;53.566;9.980;2023-01-01T11:39:58;8.43;;;5.05;;
20462;SDS011;10390;53.566;9.980;2023-01-01T11:42:34;6.47;;;4.35;;
20462;SDS011;10390;53.566;9.980;2023-01-01T11:45:23;7.80;;;4.93;;
20462;SDS011;10390;53.566;9.980;2023-01-01T11:47:53;8.63;;;5.28;;
20462;SDS011;10390;53.566;9.980;2023-01-01T11:50:27;6.63;;;4.53;;
20462;SDS011;10390;53.566;9.980;2023-01-01T11:52:55;9.75;;;4.53;;
20462;SDS011;10390;53.566;9.980;2023-01-01T11:55:36;6.28;;;4.28;;
20462;SDS011;10390;53.566;9.980;2023-01-01T12:00:37;6.32;;;4.30;;
20462;SDS011;10390;53.566;9.980;2023-01-01T12:03:09;6.50;;;3.88;;
20462;SDS011;10390;53.566;9.980;2023-01-01T12:05:48;7.03;;;3.95;;
20462;SDS011;10390;53.566;9.980;2023-01-01T12:08:43;6.93;;;3.90;;
20462;SDS011;10390;53.566;9.980;2023-01-01T12:11:15;7.18;;;3.92;;
20462;SDS011;10390;53.566;9.980;2023-01-01T12:13:50;5.93;;;4.07;;
20462;SDS011;10390;53.566;9.980;2023-01-01T12:19:26;10.13;;;4.22;;
20462;SDS011;10390;53.566;9.980;2023-01-01T12:22:00;7.50;;;4.30;;
20462;SDS011;10390;53.566;9.980;2023-01-01T12:24:31;6.60;;;3.92;;
20462;SDS011;10390;53.566;9.980;2023-01-01T12:27:24;8.35;;;3.80;;
20462;SDS011;10390;53.566;9.980;2023-01-01T12:32:58;5.75;;;3.70;;
20462;SDS011;10390;53.566;9.980;2023-01-01T12:35:52;7.85;;;4.10;;
20462;SDS011;10390;53.566;9.980;2023-01-01T12:46:21;4.82;;;3.03;;
20462;SDS011;10390;53.566;9.980;2023-01-01T12:49:15;5.40;;;3.38;;
20462;SDS011;10390;53.566;9.980;2023-01-01T12:51:56;5.20;;;3.38;;
20462;SDS011;10390;53.566;9.980;2023-01-01T12:54:55;5.40;;;3.70;;
20462;SDS011;10390;53.566;9.980;2023-01-01T12:57:55;5.68;;;3.42;;
20462;SDS011;10390;53.566;9.980;2023-01-01T13:00:50;5.03;;;3.03;;
20462;SDS011;10390;53.566;9.980;2023-01-01T13:03:21;4.40;;;2.95;;
20462;SDS011;10390;53.566;9.980;2023-01-01T13:05:53;6.00;;;2.95;;
20462;SDS011;10390;53.566;9.980;2023-01-01T13:08:20;5.00;;;3.25;;
20462;SDS011;10390;53.566;9.980;2023-01-01T13:10:47;5.25;;;3.33;;
20462;SDS011;10390;53.566;9.980;2023-01-01T13:13:15;5.20;;;3.08;;
20462;SDS011;10390;53.566;9.980;2023-01-01T13:15:43;5.95;;;2.88;;
20462;SDS011;10390;53.566;9.980;2023-01-01T13:20:41;4.97;;;2.80;;
20462;SDS011;10390;53.566;9.980;2023-01-01T13:31:08;6.00;;;2.92;;
20462;SDS011;10390;53.566;9.980;2023-01-01T13:33:34;5.13;;;2.90;;
20462;SDS011;10390;53.566;9.980;2023-01-01T13:44:10;4.60;;;3.28;;
20462;SDS011;10390;53.566;9.980;2023-01-01T13:49:13;9.23;;;3.45;;
20462;SDS011;10390;53.566;9.980;2023-01-01T13:52:02;5.57;;;2.70;;
20462;SDS011;10390;53.566;9.980;2023-01-01T14:03:53;5.32;;;3.17;;
20462;SDS011;10390;53.566;9.980;2023-01-01T14:06:24;6.57;;;3.45;;
20462;SDS011;10390;53.566;9.980;2023-01-01T14:11:33;5.18;;;3.33;;
20462;SDS011;10390;53.566;9.980;2023-01-01T14:13:59;4.90;;;3.08;;
20462;SDS011;10390;53.566;9.980;2023-01-01T14:16:25;7.43;;;3.50;;
20462;SDS011;10390;53.566;9.980;2023-01-01T14:18:55;6.93;;;2.95;;
20462;SDS011;10390;53.566;9.980;2023-01-01T14:21:28;5.05;;;3.00;;
20462;SDS011;10390;53.566;9.980;2023-01-01T14:24:02;6.00;;;3.42;;
20462;SDS011;10390;53.566;9.980;2023-01-01T14:26:30;9.23;;;3.20;;
20462;SDS011;10390;53.566;9.980;2023-01-01T14:28:58;7.82;;;3.33;;
20462;SDS011;10390;53.566;9.980;2023-01-01T14:31:27;4.72;;;2.78;;
20462;SDS011;10390;53.566;9.980;2023-01-01T14:33:54;5.95;;;2.75;;
20462;SDS011;10390;53.566;9.980;2023-01-01T14:38:46;6.70;;;3.42;;
20462;SDS011;10390;53.566;9.980;2023-01-01T14:41:25;5.90;;;3.28;;
20462;SDS011;10390;53.566;9.980;2023-01-01T14:43:54;8.07;;;3.38;;
20462;SDS011;10390;53.566;9.980;2023-01-01T14:46:23;5.55;;;3.08;;
20462;SDS011;10390;53.566;9.980;2023-01-01T14:48:54;6.50;;;3.28;;
20462;SDS011;10390;53.566;9.980;2023-01-01T14:51:23;5.35;;;3.33;;
20462;SDS011;10390;53.566;9.980;2023-01-01T14:53:51;5.63;;;3.30;;
20462;SDS011;10390;53.566;9.980;2023-01-01T14:56:20;5.88;;;3.00;;
20462;SDS011;10390;53.566;9.980;2023-01-01T14:58:48;5.00;;;2.90;;
20462;SDS011;10390;53.566;9.980;2023-01-01T15:01:15;4.28;;;2.60;;
20462;SDS011;10390;53.566;9.980;2023-01-01T15:03:59;8.57;;;3.05;;
20462;SDS011;10390;53.566;9.980;2023-01-01T15:06:26;6.13;;;2.90;;
20462;SDS011;10390;53.566;9.980;2023-01-01T15:08:53;6.75;;;3.10;;
20462;SDS011;10390;53.566;9.980;2023-01-01T15:11:19;10.55;;;3.00;;
20462;SDS011;10390;53.566;9.980;2023-01-01T15:16:59;6.97;;;2.60;;
20462;SDS011;10390;53.566;9.980;2023-01-01T15:19:32;8.02;;;2.70;;
20462;SDS011;10390;53.566;9.980;2023-01-01T15:21:59;7.68;;;2.75;;
20462;SDS011;10390;53.566;9.980;2023-01-01T15:24:26;8.80;;;2.63;;
20462;SDS011;10390;53.566;9.980;2023-01-01T15:27:01;7.07;;;2.33;;
20462;SDS011;10390;53.566;9.980;2023-01-01T15:29:36;6.10;;;2.60;;
20462;SDS011;10390;53.566;9.980;2023-01-01T15:32:07;8.02;;;2.80;;
20462;SDS011;10390;53.566;9.980;2023-01-01T15:34:42;6.95;;;2.88;;
20462;SDS011;10390;53.566;9.980;2023-01-01T15:37:14;6.72;;;2.88;;
20462;SDS011;10390;53.566;9.980;2023-01-01T15:39:46;6.18;;;2.60;;
20462;SDS011;10390;53.566;9.980;2023-01-01T15:42:29;6.90;;;2.85;;
20462;SDS011;10390;53.566;9.980;2023-01-01T15:47:50;4.50;;;2.53;;
20462;SDS011;10390;53.566;9.980;2023-01-01T15:53:08;4.30;;;2.28;;
20462;SDS011;10390;53.566;9.980;2023-01-01T15:55:41;7.15;;;2.80;;
20462;SDS011;10390;53.566;9.980;2023-01-01T15:58:12;6.68;;;2.67;;
20462;SDS011;10390;53.566;9.980;2023-01-01T16:00:57;6.40;;;2.42;;
20462;SDS011;10390;53.566;9.980;2023-01-01T16:03:26;5.22;;;2.50;;
20462;SDS011;10390;53.566;9.980;2023-01-01T16:05:54;10.95;;;2.67;;
20462;SDS011;10390;53.566;9.980;2023-01-01T16:08:20;4.93;;;2.60;;
20462;SDS011;10390;53.566;9.980;2023-01-01T16:10:46;8.52;;;2.70;;
20462;SDS011;10390;53.566;9.980;2023-01-01T16:13:13;5.68;;;3.03;;
20462;SDS011;10390;53.566;9.980;2023-01-01T16:15:54;6.55;;;2.85;;
20462;SDS011;10390;53.566;9.980;2023-01-01T16:18:29;5.10;;;3.00;;
20462;SDS011;10390;53.566;9.980;2023-01-01T16:20:56;5.63;;;2.97;;
20462;SDS011;10390;53.566;9.980;2023-01-01T16:23:23;6.43;;;2.85;;
20462;SDS011;10390;53.566;9.980;2023-01-01T16:25:48;5.13;;;2.85;;
20462;SDS011;10390;53.566;9.980;2023-01-01T16:28:14;4.20;;;2.38;;
20462;SDS011;10390;53.566;9.980;2023-01-01T16:30:41;5.95;;;3.20;;
20462;SDS011;10390;53.566;9.980;2023-01-01T16:33:17;5.65;;;2.78;;
20462;SDS011;10390;53.566;9.980;2023-01-01T16:35:44;6.18;;;2.80;;
20462;SDS011;10390;53.566;9.980;2023-01-01T16:38:10;5.88;;;2.53;;
20462;SDS011;10390;53.566;9.980;2023-01-01T16:40:36;5.43;;;2.70;;
20462;SDS011;10390;53.566;9.980;2023-01-01T16:43:03;5.32;;;2.78;;
20462;SDS011;10390;53.566;9.980;2023-01-01T16:45:33;4.47;;;2.33;;
20462;SDS011;10390;53.566;9.980;2023-01-01T16:47:59;5.60;;;2.65;;
20462;SDS011;10390;53.566;9.980;2023-01-01T16:50:25;4.63;;;2.30;;
20462;SDS011;10390;53.566;9.980;2023-01-01T16:52:51;4.85;;;2.45;;
20462;SDS011;10390;53.566;9.980;2023-01-01T16:55:17;5.28;;;2.58;;
20462;SDS011;10390;53.566;9.980;2023-01-01T16:57:42;5.18;;;2.85;;
20462;SDS011;10390;53.566;9.980;2023-01-01T17:00:08;4.20;;;2.60;;
20462;SDS011;10390;53.566;9.980;2023-01-01T17:02:35;6.30;;;2.95;;
20462;SDS011;10390;53.566;9.980;2023-01-01T17:05:01;5.07;;;2.88;;
20462;SDS011;10390;53.566;9.980;2023-01-01T17:07:27;6.60;;;2.67;;
20462;SDS011;10390;53.566;9.980;2023-01-01T17:09:52;4.82;;;2.67;;
20462;SDS011;10390;53.566;9.980;2023-01-01T17:12:18;5.35;;;3.30;;